Main page
METAR-TAF:

METAR-TAF

Airports :

Dammam, Saudi Arabia

King Fahd International Airport

latitude: 26-28N, longitude: 049-47E, elevation: 22 m

Current weather observation

The report was made 1 hour and 0 minutes ago, at 01:00 UTC
Calm wind
Temperature 27°C
Humidity 37%
Pressure 995 hPa
Visibility: 6000 m
Clear sky

METAR: OEDF 290100Z 00000KT 6000 SKC 27/11 Q0995 NOSIG

Time: 05:00 (02:00 UTC)

Forecast

The report was made 5 hours and 5 minutes ago, at 20:55 UTC
Forecast valid from 29 at 00 UTC to 30 at 06 UTC
Wind 5 kt from variable directions
Visibility: 8000 m
Probability 30% :
Temporary
from 29 at 00 UTC to 29 at 05 UTC
Visibility: 4000 m
haze
Becoming
from 29 at 07 UTC to 29 at 09 UTC
Wind 13 kt from the Northeast

TAF: OEDF 282055Z 2900/3006 VRB05KT 8000 PROB30 TEMPO 2900/2905 4000 HZ BECMG 2907/2909 05013KT

Weather observations and forecasts of more than 4000 airports (METAR and TAF reports).

The available stations are represented by yellow and red dots on the map.

Hover mouse over dot to see the name of the station.

Then click to see weather observations and forecasts.

To change the map : click on the green buttons with a black cross to zoom in, on the green button with a dash to zoom out, or on the green arrows for adjacent maps.


METAR-TAF: